Time;durP1;ratioP1;P1;durP2;ratioP2;P2;SDS_P1;SDS_P2;PMS_P1;PMS_P2;Temp;Humidity;BMP_temperature;BMP_pressure;BME280_temperature;BME280_humidity;BME280_pressure;Samples;Min_cycle;Max_cycle;Signal;HPM_P1;HPM_P2
2022/08/23 00:00:08;;;;;;;2.28;0.80;;;23.90;99.90;;;;;;5063934;28;20277;-55
2022/08/23 00:02:35;;;;;;;3.80;0.90;;;23.90;99.90;;;;;;5065980;28;20613;-56
2022/08/23 00:05:04;;;;;;;2.05;1.30;;;23.90;99.90;;;;;;5068869;28;20193;-56
2022/08/23 00:07:31;;;;;;;3.13;0.90;;;23.90;99.90;;;;;;5065035;28;20194;-56
2022/08/23 00:09:59;;;;;;;1.65;1.00;;;23.90;99.90;;;;;;5064400;28;20202;-55
2022/08/23 00:12:26;;;;;;;1.55;1.10;;;23.90;99.90;;;;;;5063893;28;20217;-54
2022/08/23 00:14:55;;;;;;;1.15;1.05;;;23.90;99.90;;;;;;5064599;28;20734;-55
2022/08/23 00:17:22;;;;;;;1.45;1.25;;;23.90;99.90;;;;;;5065462;28;20236;-54
2022/08/23 00:19:49;;;;;;;1.48;1.05;;;23.90;99.90;;;;;;5062979;28;20259;-56
2022/08/23 00:22:17;;;;;;;1.10;1.00;;;23.90;99.90;;;;;;5065288;28;20227;-55
2022/08/23 00:24:44;;;;;;;0.90;0.90;;;23.90;99.90;;;;;;5064477;28;20232;-57
2022/08/23 00:27:15;;;;;;;0.93;0.70;;;23.90;99.90;;;;;;5063592;28;20189;-56
2022/08/23 00:29:44;;;;;;;0.80;0.80;;;23.90;99.90;;;;;;5063925;28;20185;-57
2022/08/23 00:32:13;;;;;;;0.95;0.95;;;23.90;99.90;;;;;;5061282;28;20206;-57
2022/08/23 00:34:40;;;;;;;3.40;1.10;;;23.90;99.90;;;;;;5057958;28;20210;-56
2022/08/23 00:37:09;;;;;;;0.90;0.90;;;23.90;99.90;;;;;;5065606;28;20662;-56
2022/08/23 00:39:39;;;;;;;0.75;0.75;;;23.90;99.90;;;;;;5065653;28;20275;-57
2022/08/23 00:47:40;;;;;;;1.67;1.25;;;23.90;99.90;;;;;;5062376;28;20185;-58
2022/08/23 00:50:21;;;;;;;1.15;1.00;;;23.90;99.90;;;;;;5062147;28;20185;-58
2022/08/23 00:52:57;;;;;;;1.52;1.20;;;23.90;99.90;;;;;;5060441;28;20201;-58
2022/08/23 00:55:27;;;;;;;2.97;1.15;;;23.90;99.90;;;;;;5065244;28;20756;-58
2022/08/23 00:57:55;;;;;;;1.02;0.93;;;23.90;99.90;;;;;;5068307;28;20522;-58
2022/08/23 01:00:22;;;;;;;3.70;1.17;;;23.90;99.90;;;;;;5066527;28;20669;-58
2022/08/23 01:02:52;;;;;;;1.10;1.00;;;23.80;99.90;;;;;;5068644;28;20238;-58
2022/08/23 01:05:20;;;;;;;1.52;1.10;;;23.80;99.90;;;;;;5063878;28;20254;-59
2022/08/23 01:07:52;;;;;;;2.70;0.98;;;23.80;99.90;;;;;;5066956;28;20285;-57
2022/08/23 01:10:26;;;;;;;1.40;1.30;;;23.80;99.90;;;;;;5064787;28;20220;-59
2022/08/23 01:13:00;;;;;;;1.20;1.10;;;23.80;99.90;;;;;;5064234;28;20334;-57
2022/08/23 01:15:32;;;;;;;4.97;1.38;;;23.90;99.90;;;;;;5066066;28;20197;-58
2022/08/23 01:18:04;;;;;;;1.20;1.10;;;23.80;99.90;;;;;;5066746;28;20189;-58
2022/08/23 01:20:38;;;;;;;1.25;1.10;;;23.90;99.90;;;;;;5065771;28;20250;-59
2022/08/23 01:23:09;;;;;;;2.10;1.63;;;23.90;99.90;;;;;;5062803;28;20182;-56
2022/08/23 01:25:38;;;;;;;4.93;1.70;;;23.90;99.90;;;;;;5064283;28;20193;-59
2022/08/23 01:28:05;;;;;;;4.57;1.67;;;23.90;99.90;;;;;;5061704;28;20189;-57
2022/08/23 01:30:34;;;;;;;2.50;1.63;;;23.90;99.90;;;;;;5065411;28;20653;-56
2022/08/23 01:33:04;;;;;;;1.85;1.38;;;23.90;99.90;;;;;;5062136;28;20222;-54
2022/08/23 01:35:35;;;;;;;2.05;1.50;;;23.90;99.90;;;;;;5065061;28;20201;-58
2022/08/23 01:38:04;;;;;;;2.78;1.20;;;23.90;99.90;;;;;;5062777;28;20199;-58
2022/08/23 01:40:31;;;;;;;1.63;1.35;;;23.90;99.90;;;;;;5066188;28;20208;-56
2022/08/23 01:43:01;;;;;;;1.75;1.30;;;23.80;99.90;;;;;;5067831;28;20198;-56
2022/08/23 01:45:30;;;;;;;3.10;1.55;;;23.80;99.90;;;;;;5066829;28;20680;-59
2022/08/23 01:47:58;;;;;;;2.78;1.50;;;23.80;99.90;;;;;;5065686;28;20288;-59
2022/08/23 01:50:27;;;;;;;1.60;1.20;;;23.80;99.90;;;;;;5066747;28;20220;-59
2022/08/23 01:52:54;;;;;;;1.63;1.52;;;23.80;99.90;;;;;;5063720;28;20217;-58
2022/08/23 01:55:23;;;;;;;1.80;1.40;;;23.80;99.90;;;;;;5067573;28;20205;-57
2022/08/23 01:57:54;;;;;;;1.33;1.23;;;23.80;99.90;;;;;;5068301;28;20197;-57
2022/08/23 02:00:26;;;;;;;1.83;1.25;;;23.80;99.90;;;;;;5063111;28;20194;-58
2022/08/23 02:02:54;;;;;;;1.42;1.08;;;23.80;99.90;;;;;;5073201;28;20189;-55
2022/08/23 02:05:22;;;;;;;2.70;1.30;;;23.80;99.90;;;;;;5070607;28;20220;-57
2022/08/23 02:07:49;;;;;;;1.92;1.23;;;23.80;99.90;;;;;;5067810;28;20313;-55
2022/08/23 02:10:18;;;;;;;1.25;1.10;;;23.90;99.90;;;;;;5070569;28;20194;-57
2022/08/23 02:12:46;;;;;;;1.35;1.23;;;23.80;99.90;;;;;;5068055;28;20351;-54
2022/08/23 02:15:17;;;;;;;3.72;1.60;;;23.80;99.90;;;;;;5070477;28;20197;-54
2022/08/23 02:17:48;;;;;;;2.67;1.42;;;23.90;99.90;;;;;;5069750;28;20529;-57
2022/08/23 02:20:15;;;;;;;2.00;1.80;;;23.80;99.90;;;;;;5068882;28;20599;-56
2022/08/23 02:22:43;;;;;;;1.92;1.55;;;23.80;99.90;;;;;;5066059;28;20207;-56
2022/08/23 02:25:10;;;;;;;2.22;1.70;;;23.80;99.90;;;;;;5070709;28;20200;-56
2022/08/23 02:27:37;;;;;;;2.63;1.98;;;23.80;99.90;;;;;;5066029;28;20224;-55
2022/08/23 02:30:06;;;;;;;2.92;1.70;;;23.80;99.90;;;;;;5069689;28;20193;-57
2022/08/23 02:32:33;;;;;;;2.90;1.35;;;23.80;99.90;;;;;;5067812;28;20213;-56
2022/08/23 02:35:02;;;;;;;2.92;1.70;;;23.80;99.90;;;;;;5068697;28;20718;-57
2022/08/23 02:37:29;;;;;;;4.07;1.90;;;23.80;99.90;;;;;;5066574;28;20201;-57
2022/08/23 02:39:56;;;;;;;6.93;1.95;;;23.80;99.90;;;;;;5064055;28;20193;-57
2022/08/23 02:42:24;;;;;;;6.43;1.67;;;23.80;99.90;;;;;;5069197;28;20660;-58
2022/08/23 02:44:51;;;;;;;6.25;1.70;;;23.80;99.90;;;;;;5064870;28;20197;-57
2022/08/23 02:47:19;;;;;;;4.47;1.70;;;23.80;99.90;;;;;;5067306;28;20201;-58
2022/08/23 02:49:58;;;;;;;4.15;1.63;;;23.80;99.90;;;;;;5066570;28;20300;-56
2022/08/23 02:52:27;;;;;;;3.97;1.83;;;23.80;99.90;;;;;;5069478;28;20204;-56
2022/08/23 02:54:54;;;;;;;2.63;1.80;;;23.80;99.90;;;;;;5062998;28;20195;-57
2022/08/23 02:57:21;;;;;;;3.05;1.80;;;23.80;99.90;;;;;;5067923;28;20201;-56
2022/08/23 02:59:51;;;;;;;1.80;1.70;;;23.80;99.90;;;;;;5065454;28;20197;-56
2022/08/23 03:02:19;;;;;;;3.40;2.45;;;23.80;99.90;;;;;;5068235;28;20201;-56
2022/08/23 03:04:46;;;;;;;4.47;2.42;;;23.80;99.90;;;;;;5066112;28;20194;-57
2022/08/23 03:07:13;;;;;;;4.18;2.22;;;23.80;99.90;;;;;;5067213;28;20201;-56
2022/08/23 03:09:42;;;;;;;4.53;2.15;;;23.80;99.90;;;;;;5065351;28;20244;-55
2022/08/23 03:12:10;;;;;;;3.03;2.03;;;23.80;99.90;;;;;;5067631;28;20189;-56
2022/08/23 03:14:42;;;;;;;3.30;2.30;;;23.80;99.90;;;;;;5067739;28;20215;-57
2022/08/23 03:17:09;;;;;;;3.40;2.17;;;23.80;99.90;;;;;;5065674;28;20192;-57
2022/08/23 03:19:36;;;;;;;3.70;2.20;;;23.80;99.90;;;;;;5064832;28;20284;-58
2022/08/23 03:22:03;;;;;;;3.58;2.15;;;23.80;99.90;;;;;;5068154;28;20701;-58
2022/08/23 03:24:31;;;;;;;2.67;2.38;;;23.80;99.90;;;;;;5066891;28;20197;-53
2022/08/23 03:27:01;;;;;;;3.03;2.00;;;23.80;99.90;;;;;;5066095;28;20657;-53
2022/08/23 03:29:28;;;;;;;2.55;2.00;;;23.80;99.90;;;;;;5067215;28;20193;-55
2022/08/23 03:32:00;;;;;;;2.38;1.95;;;23.80;99.90;;;;;;5069199;28;20276;-56
2022/08/23 03:34:29;;;;;;;3.38;1.50;;;23.80;99.90;;;;;;5066941;28;20212;-54
2022/08/23 03:36:58;;;;;;;3.63;1.77;;;23.80;99.90;;;;;;5065735;28;20205;-56
2022/08/23 03:39:25;;;;;;;3.60;1.67;;;23.80;99.90;;;;;;5064497;28;20243;-56
2022/08/23 03:41:53;;;;;;;3.10;1.90;;;23.80;99.90;;;;;;5065316;28;20359;-55
2022/08/23 03:44:22;;;;;;;6.50;2.40;;;23.80;99.90;;;;;;5064608;28;20262;-56
2022/08/23 03:46:50;;;;;;;3.85;2.10;;;23.80;99.90;;;;;;5063364;28;20201;-56
2022/08/23 03:49:18;;;;;;;5.38;1.90;;;23.80;99.90;;;;;;5066144;28;20724;-54
2022/08/23 03:51:52;;;;;;;2.80;1.50;;;23.80;99.90;;;;;;5064082;28;20185;-54
2022/08/23 03:54:20;;;;;;;2.00;1.40;;;23.80;99.90;;;;;;5065656;28;20221;-56
2022/08/23 03:56:53;;;;;;;2.40;2.00;;;23.80;99.90;;;;;;5065952;28;20675;-56
2022/08/23 03:59:22;;;;;;;3.60;1.50;;;23.80;99.90;;;;;;5067163;28;20205;-56
2022/08/23 04:01:49;;;;;;;3.28;1.80;;;23.80;99.90;;;;;;5069774;28;20284;-57
2022/08/23 04:04:17;;;;;;;3.67;1.95;;;23.80;99.90;;;;;;5065033;28;20185;-56
2022/08/23 04:07:04;;;;;;;2.15;1.80;;;23.80;99.90;;;;;;5067349;28;20611;-57
2022/08/23 04:09:31;;;;;;;4.43;2.20;;;23.80;99.90;;;;;;5065058;28;20197;-58
2022/08/23 04:11:58;;;;;;;8.65;2.42;;;23.80;99.90;;;;;;5067334;28;20227;-56
2022/08/23 04:14:27;;;;;;;6.90;2.50;;;23.80;99.90;;;;;;5063451;28;20238;-56
2022/08/23 04:16:54;;;;;;;4.90;2.70;;;23.80;99.90;;;;;;5065477;28;20197;-56
2022/08/23 04:19:21;;;;;;;6.80;2.92;;;23.80;99.90;;;;;;5062624;28;20697;-58
2022/08/23 04:21:59;;;;;;;6.97;3.00;;;23.80;99.90;;;;;;5066561;28;20197;-53
2022/08/23 04:24:31;;;;;;;10.43;3.13;;;23.80;99.90;;;;;;5064259;28;20189;-54
2022/08/23 04:26:58;;;;;;;5.43;3.15;;;23.80;99.90;;;;;;5065511;28;20189;-58
2022/08/23 04:29:27;;;;;;;5.00;3.40;;;23.80;99.90;;;;;;5065107;28;20197;-57
2022/08/23 04:31:57;;;;;;;5.68;3.50;;;23.80;99.90;;;;;;5067352;28;20193;-58
2022/08/23 04:34:24;;;;;;;6.78;3.38;;;23.70;99.90;;;;;;5065204;28;20235;-58
2022/08/23 04:36:51;;;;;;;7.55;3.92;;;23.70;99.90;;;;;;5064459;28;20227;-58
2022/08/23 04:39:19;;;;;;;9.77;5.22;;;23.70;99.90;;;;;;5064522;28;20292;-58
2022/08/23 04:44:32;;;;;;;10.05;5.03;;;23.70;99.90;;;;;;5064273;28;20327;-58
2022/08/23 04:47:02;;;;;;;8.57;4.55;;;23.70;99.90;;;;;;5064303;28;20729;-56
2022/08/23 04:49:29;;;;;;;8.63;5.35;;;23.70;99.90;;;;;;5063722;28;20611;-57
2022/08/23 04:51:57;;;;;;;9.43;5.15;;;23.70;99.90;;;;;;5064468;28;20231;-56
2022/08/23 04:54:24;;;;;;;8.90;5.07;;;23.70;99.90;;;;;;5060888;28;20255;-53
2022/08/23 04:57:18;;;;;;;7.15;4.25;;;23.70;99.90;;;;;;5064300;28;20285;-57
2022/08/23 04:59:49;;;;;;;8.75;4.03;;;23.70;99.90;;;;;;5063239;28;20197;-57
2022/08/23 05:02:17;;;;;;;5.35;3.55;;;23.70;99.90;;;;;;5066702;28;20265;-56
2022/08/23 05:04:45;;;;;;;8.10;2.90;;;23.70;99.90;;;;;;5065824;28;20284;-57
2022/08/23 05:07:14;;;;;;;4.30;2.58;;;23.70;99.90;;;;;;5067976;28;20203;-56
2022/08/23 05:09:42;;;;;;;6.40;2.65;;;23.70;99.90;;;;;;5064035;28;20193;-58
2022/08/23 05:12:11;;;;;;;3.25;2.08;;;23.70;99.90;;;;;;5062972;28;20283;-55
2022/08/23 05:14:38;;;;;;;2.92;2.33;;;23.70;99.90;;;;;;5063382;28;20217;-56
2022/08/23 05:17:07;;;;;;;4.15;2.55;;;23.80;99.90;;;;;;5062760;28;20201;-55
2022/08/23 05:19:36;;;;;;;3.15;2.20;;;23.70;99.90;;;;;;5061556;28;20284;-56
2022/08/23 05:22:03;;;;;;;5.07;2.35;;;23.80;99.90;;;;;;5062931;28;20534;-54
2022/08/23 05:24:50;;;;;;;3.08;2.00;;;23.80;99.90;;;;;;5063293;28;20189;-56
2022/08/23 05:27:18;;;;;;;4.63;2.08;;;23.80;99.90;;;;;;5060211;28;20198;-56
2022/08/23 05:29:45;;;;;;;2.28;1.95;;;23.80;99.90;;;;;;5062823;28;20198;-56
2022/08/23 05:32:13;;;;;;;3.75;2.08;;;23.80;99.90;;;;;;5065287;28;20625;-56
2022/08/23 05:34:41;;;;;;;2.50;1.60;;;23.80;99.90;;;;;;5067134;28;20258;-56
2022/08/23 05:37:10;;;;;;;5.70;2.00;;;23.80;99.90;;;;;;5064477;28;20298;-56
2022/08/23 05:39:41;;;;;;;6.13;2.25;;;23.80;99.90;;;;;;5062815;28;20198;-56
2022/08/23 05:42:13;;;;;;;4.15;2.30;;;23.80;99.90;;;;;;5064962;28;20201;-54
2022/08/23 05:44:41;;;;;;;5.07;2.45;;;23.80;99.90;;;;;;5065179;28;20220;-56
2022/08/23 05:47:14;;;;;;;5.32;2.17;;;23.80;99.90;;;;;;5066920;28;20694;-53
2022/08/23 05:50:04;;;;;;;5.63;2.17;;;23.80;99.90;;;;;;5063545;28;20672;-56
2022/08/23 05:52:35;;;;;;;4.47;2.58;;;23.80;99.90;;;;;;5065097;28;20237;-56
2022/08/23 05:55:02;;;;;;;4.35;2.28;;;23.90;99.90;;;;;;5065710;28;20298;-54
2022/08/23 05:57:50;;;;;;;4.32;1.92;;;23.90;99.90;;;;;;5066709;28;20301;-52
2022/08/23 06:00:17;;;;;;;4.35;1.80;;;23.90;99.90;;;;;;5066224;28;20198;-54
2022/08/23 06:02:49;;;;;;;4.05;1.90;;;23.90;99.90;;;;;;5069455;28;20596;-56
2022/08/23 06:05:18;;;;;;;2.83;1.58;;;23.90;99.90;;;;;;5066706;28;20197;-57
2022/08/23 06:07:46;;;;;;;2.10;1.50;;;23.90;99.90;;;;;;5065785;28;20201;-56
2022/08/23 06:10:14;;;;;;;1.10;1.10;;;24.00;99.90;;;;;;5065620;28;20233;-57
2022/08/23 06:12:43;;;;;;;4.63;1.30;;;24.00;99.90;;;;;;5069175;28;20700;-53
2022/08/23 06:15:11;;;;;;;1.92;1.75;;;24.00;99.90;;;;;;5065634;28;20209;-57
2022/08/23 06:17:39;;;;;;;2.58;1.60;;;24.10;99.90;;;;;;5066510;28;20201;-56
2022/08/23 06:20:09;;;;;;;1.50;1.40;;;24.10;99.90;;;;;;5065945;28;20201;-58
2022/08/23 06:22:55;;;;;;;4.25;2.00;;;24.10;99.90;;;;;;5067846;28;20277;-55
2022/08/23 06:25:22;;;;;;;4.32;1.50;;;24.20;99.90;;;;;;5070351;28;20193;-57
2022/08/23 06:27:58;;;;;;;1.70;1.60;;;24.20;99.90;;;;;;5065218;28;20660;-57
2022/08/23 06:30:25;;;;;;;1.38;1.20;;;24.20;99.90;;;;;;5069126;28;20202;-56
2022/08/23 06:33:01;;;;;;;1.35;1.33;;;24.20;99.90;;;;;;5065824;28;20323;-57
2022/08/23 06:35:32;;;;;;;1.50;1.40;;;24.20;99.90;;;;;;5067661;28;20205;-57
2022/08/23 06:38:08;;;;;;;1.10;1.05;;;24.20;99.90;;;;;;5066602;28;20205;-56
2022/08/23 06:40:50;;;;;;;2.10;1.20;;;24.20;99.90;;;;;;5063037;28;20276;-57
2022/08/23 06:43:40;;;;;;;2.45;1.20;;;24.30;99.90;;;;;;5061597;28;20654;-59
2022/08/23 06:46:20;;;;;;;1.65;1.25;;;24.30;99.90;;;;;;5066356;28;20223;-57
2022/08/23 06:48:48;;;;;;;4.20;1.38;;;24.30;99.90;;;;;;5065629;28;20189;-57
2022/08/23 06:51:22;;;;;;;1.90;1.70;;;24.30;99.90;;;;;;5068514;28;20546;-57
2022/08/23 06:53:55;;;;;;;2.92;1.50;;;24.30;99.90;;;;;;5061596;28;20208;-58
2022/08/23 06:56:43;;;;;;;1.60;1.50;;;24.40;99.90;;;;;;5068238;28;20573;-57
2022/08/23 06:59:17;;;;;;;1.77;1.50;;;24.40;99.90;;;;;;5065245;28;20220;-58
2022/08/23 07:02:09;;;;;;;1.55;1.45;;;24.40;99.90;;;;;;5058896;28;20205;-57
2022/08/23 07:04:55;;;;;;;1.48;1.38;;;24.40;99.90;;;;;;5067986;28;20278;-57
2022/08/23 07:07:42;;;;;;;2.05;1.33;;;24.40;99.90;;;;;;5068290;28;20318;-58
2022/08/23 07:10:10;;;;;;;1.40;1.30;;;24.40;99.90;;;;;;5067840;28;20776;-57
2022/08/23 07:12:41;;;;;;;1.05;1.00;;;24.40;99.90;;;;;;5069263;28;20244;-57
2022/08/23 07:15:10;;;;;;;2.10;1.08;;;24.40;99.90;;;;;;5067142;28;20210;-57
2022/08/23 07:17:37;;;;;;;1.20;1.05;;;24.40;99.90;;;;;;5065079;28;20657;-58
2022/08/23 07:20:05;;;;;;;4.50;1.30;;;24.50;99.90;;;;;;5065050;28;20205;-58
2022/08/23 07:22:35;;;;;;;1.40;1.30;;;24.50;99.90;;;;;;5063843;28;20193;-58
2022/08/23 07:25:05;;;;;;;3.60;1.38;;;24.50;99.90;;;;;;5064522;28;20726;-58
2022/08/23 07:27:33;;;;;;;1.33;1.13;;;24.50;99.90;;;;;;5065521;28;20229;-57
2022/08/23 07:30:04;;;;;;;1.85;1.30;;;24.50;99.90;;;;;;5065065;28;20569;-58
2022/08/23 07:32:31;;;;;;;1.73;1.20;;;24.50;99.90;;;;;;5065657;28;20293;-57
2022/08/23 07:35:05;;;;;;;1.60;1.35;;;24.50;99.90;;;;;;5063807;28;20292;-58
2022/08/23 07:37:33;;;;;;;1.58;1.10;;;24.50;99.90;;;;;;5062249;28;20311;-58
2022/08/23 07:40:06;;;;;;;2.58;1.30;;;24.50;99.90;;;;;;5063885;28;20262;-54
2022/08/23 07:42:34;;;;;;;1.40;1.30;;;24.50;99.90;;;;;;5065291;28;20198;-56
2022/08/23 07:45:01;;;;;;;1.27;1.25;;;24.50;99.90;;;;;;5067565;28;20194;-56
2022/08/23 07:47:32;;;;;;;2.85;1.30;;;24.50;99.90;;;;;;5064309;28;20200;-57
2022/08/23 07:50:00;;;;;;;1.45;1.35;;;24.50;99.90;;;;;;5065601;28;20193;-56
2022/08/23 07:52:28;;;;;;;2.67;1.45;;;24.50;99.90;;;;;;5063579;28;20288;-57
2022/08/23 07:54:55;;;;;;;2.22;1.50;;;24.50;99.90;;;;;;5079018;28;20220;-54
2022/08/23 07:57:36;;;;;;;1.70;1.60;;;24.60;99.90;;;;;;5062956;28;20181;-56
2022/08/23 08:00:32;;;;;;;2.03;1.88;;;24.60;99.90;;;;;;5048384;28;20324;-57
2022/08/23 08:03:15;;;;;;;2.92;2.38;;;24.70;99.90;;;;;;5065785;28;20672;-56
2022/08/23 08:06:07;;;;;;;2.78;2.00;;;24.70;99.90;;;;;;5062794;28;20228;-54
2022/08/23 08:08:34;;;;;;;2.42;1.63;;;24.80;99.90;;;;;;5062385;28;20205;-54
2022/08/23 08:11:01;;;;;;;2.22;1.83;;;24.80;99.90;;;;;;5066500;28;20201;-51
2022/08/23 08:13:30;;;;;;;1.70;1.60;;;24.90;99.90;;;;;;5061502;28;20256;-52
2022/08/23 08:15:57;;;;;;;2.65;1.40;;;24.80;99.90;;;;;;5065971;28;20208;-51
2022/08/23 08:18:27;;;;;;;2.65;1.67;;;24.90;99.90;;;;;;5060820;28;20205;-50
2022/08/23 08:21:15;;;;;;;1.50;1.40;;;24.80;99.90;;;;;;5067155;28;20216;-53
2022/08/23 08:24:06;;;;;;;1.23;1.23;;;24.80;99.90;;;;;;5063359;28;20215;-54
2022/08/23 08:26:50;;;;;;;1.75;1.40;;;24.80;99.90;;;;;;5058944;28;20602;-54
2022/08/23 08:29:19;;;;;;;1.50;1.40;;;24.80;99.90;;;;;;5062952;28;20205;-55
2022/08/23 08:31:47;;;;;;;1.80;1.40;;;24.80;99.90;;;;;;5062237;28;20221;-52
2022/08/23 08:34:15;;;;;;;1.25;1.23;;;24.80;99.90;;;;;;5060243;28;20289;-47
2022/08/23 08:36:45;;;;;;;1.30;1.30;;;24.80;99.90;;;;;;5060715;28;20565;-47
2022/08/23 08:39:19;;;;;;;1.30;1.20;;;24.80;99.90;;;;;;5061007;28;20189;-55
2022/08/23 08:41:55;;;;;;;1.42;1.42;;;24.80;99.90;;;;;;5063238;28;20599;-54
2022/08/23 08:44:37;;;;;;;1.40;1.30;;;24.80;99.90;;;;;;5074564;28;20219;-52
2022/08/23 08:47:10;;;;;;;2.42;1.42;;;24.80;99.90;;;;;;5061371;28;20197;-49
2022/08/23 08:49:43;;;;;;;2.97;1.60;;;24.80;99.90;;;;;;5060484;28;20232;-54
2022/08/23 08:52:17;;;;;;;2.15;1.50;;;24.80;99.90;;;;;;5063369;28;20250;-48
2022/08/23 08:54:48;;;;;;;1.92;1.83;;;24.80;99.90;;;;;;5052500;28;20230;-48
2022/08/23 08:57:21;;;;;;;2.72;1.90;;;24.80;99.90;;;;;;5064731;28;20204;-52
2022/08/23 08:59:55;;;;;;;1.90;1.75;;;24.80;99.90;;;;;;5065122;28;20240;-52
2022/08/23 09:02:28;;;;;;;3.58;2.08;;;24.80;99.90;;;;;;5063901;28;20213;-55
2022/08/23 09:04:57;;;;;;;4.50;2.08;;;24.80;99.90;;;;;;5066017;28;20389;-54
2022/08/23 09:07:30;;;;;;;2.53;2.15;;;24.90;99.90;;;;;;5063510;28;20202;-50
2022/08/23 09:10:18;;;;;;;2.70;2.47;;;24.90;99.90;;;;;;5064181;28;20211;-53
2022/08/23 09:13:08;;;;;;;5.25;2.45;;;24.90;99.90;;;;;;5065770;28;20240;-52
2022/08/23 09:15:41;;;;;;;2.38;2.13;;;24.90;99.90;;;;;;5067379;28;20205;-51
2022/08/23 09:18:11;;;;;;;2.55;1.90;;;24.90;99.90;;;;;;5064963;28;20228;-51
2022/08/23 09:20:41;;;;;;;2.58;2.38;;;25.00;99.90;;;;;;5065996;28;20205;-53
2022/08/23 09:23:15;;;;;;;2.67;2.10;;;25.00;99.90;;;;;;5056927;28;20228;-55
2022/08/23 09:25:51;;;;;;;2.20;1.90;;;25.10;99.90;;;;;;5081912;28;20236;-57
2022/08/23 09:28:19;;;;;;;2.20;2.00;;;25.10;99.90;;;;;;5062217;28;20660;-56
2022/08/23 09:30:51;;;;;;;2.13;1.90;;;25.10;99.90;;;;;;5062565;28;20518;-52
2022/08/23 09:33:22;;;;;;;2.50;2.20;;;25.10;99.90;;;;;;5061709;28;20193;-51
2022/08/23 09:36:13;;;;;;;1.95;1.85;;;25.10;99.90;;;;;;5064524;28;20205;-55
2022/08/23 09:38:51;;;;;;;2.90;1.90;;;25.10;99.90;;;;;;5062737;28;20307;-54
2022/08/23 09:41:22;;;;;;;1.73;1.63;;;25.10;99.90;;;;;;5061452;28;20197;-50
2022/08/23 09:43:55;;;;;;;5.78;2.88;;;25.10;99.90;;;;;;5063742;28;20205;-53
2022/08/23 09:46:30;;;;;;;7.82;3.20;;;25.00;99.90;;;;;;5063466;28;20272;-52
2022/08/23 09:49:00;;;;;;;10.90;3.70;;;25.00;99.90;;;;;;5062807;28;20193;-49
2022/08/23 09:51:40;;;;;;;7.63;3.88;;;25.00;99.90;;;;;;5062078;28;20254;-50
2022/08/23 09:54:18;;;;;;;7.78;3.50;;;25.00;99.90;;;;;;5063214;28;20205;-54
2022/08/23 09:56:53;;;;;;;6.07;3.35;;;24.90;99.90;;;;;;5063337;28;20220;-53
2022/08/23 09:59:32;;;;;;;7.68;3.42;;;24.90;99.90;;;;;;5060284;28;20279;-52
2022/08/23 10:02:17;;;;;;;7.22;3.08;;;24.90;99.90;;;;;;5079281;28;20208;-52
2022/08/23 10:04:47;;;;;;;3.63;2.20;;;24.90;99.90;;;;;;5063673;28;20718;-53
2022/08/23 10:07:25;;;;;;;4.18;2.30;;;24.90;99.90;;;;;;5065318;28;20704;-54
2022/08/23 10:10:12;;;;;;;3.20;2.45;;;25.00;99.90;;;;;;5063780;28;20201;-45
2022/08/23 10:12:40;;;;;;;2.10;2.00;;;25.00;99.90;;;;;;5059784;28;20264;-47
2022/08/23 10:15:09;;;;;;;2.58;2.05;;;25.10;99.90;;;;;;5064672;28;20221;-46
2022/08/23 10:17:43;;;;;;;3.55;2.25;;;25.20;99.90;;;;;;5067248;28;20201;-47
2022/08/23 10:20:24;;;;;;;2.80;2.40;;;25.40;99.90;;;;;;5067301;28;20193;-51
2022/08/23 10:22:58;;;;;;;4.45;2.42;;;25.40;99.90;;;;;;5079955;28;20189;-48
2022/08/23 10:25:36;;;;;;;4.18;2.47;;;25.50;99.90;;;;;;5069093;28;20193;-49
2022/08/23 10:31:07;;;;;;;5.07;2.55;;;25.50;99.90;;;;;;5070698;28;20185;-46
2022/08/23 10:33:46;;;;;;;5.82;2.85;;;25.50;99.90;;;;;;5065624;28;20201;-46
2022/08/23 10:36:16;;;;;;;4.97;2.35;;;25.50;99.90;;;;;;5065530;28;20255;-45
2022/08/23 10:38:46;;;;;;;5.32;2.60;;;25.50;99.90;;;;;;5069432;28;20181;-46
2022/08/23 10:41:43;;;;;;;3.17;2.50;;;25.60;99.90;;;;;;5067416;28;20560;-49
2022/08/23 10:44:28;;;;;;;2.30;2.10;;;25.50;99.90;;;;;;5064131;28;20201;-52
2022/08/23 10:47:16;;;;;;;3.17;2.40;;;25.60;99.90;;;;;;5066401;28;20193;-53
2022/08/23 10:49:49;;;;;;;4.78;2.50;;;25.50;99.90;;;;;;5064638;28;20546;-51
2022/08/23 10:52:22;;;;;;;6.93;3.20;;;25.60;99.90;;;;;;5064970;28;20201;-54
2022/08/23 10:55:15;;;;;;;8.27;3.25;;;25.50;99.90;;;;;;5065530;28;20567;-54
2022/08/23 10:57:46;;;;;;;5.95;2.17;;;25.60;99.90;;;;;;5064776;28;20719;-54
2022/08/23 11:00:17;;;;;;;8.10;3.13;;;25.60;99.90;;;;;;5066217;28;20197;-55
2022/08/23 11:02:53;;;;;;;2.90;2.47;;;25.60;99.90;;;;;;5066061;28;20234;-53
2022/08/23 11:05:28;;;;;;;3.00;2.42;;;25.60;99.90;;;;;;5062997;28;20197;-55
2022/08/23 11:08:02;;;;;;;5.40;2.40;;;25.60;99.90;;;;;;5067238;28;20292;-53
2022/08/23 11:10:44;;;;;;;3.97;2.58;;;25.70;99.90;;;;;;5067185;28;20202;-55
2022/08/23 11:13:22;;;;;;;3.50;2.70;;;25.70;99.90;;;;;;5065411;28;20237;-49
2022/08/23 11:15:57;;;;;;;2.25;2.08;;;25.70;99.90;;;;;;5065954;28;20209;-53
2022/08/23 11:18:41;;;;;;;4.82;2.55;;;25.60;99.90;;;;;;5062564;28;20235;-52
2022/08/23 11:21:29;;;;;;;3.05;2.53;;;25.60;99.90;;;;;;5079687;28;20292;-54
2022/08/23 11:24:44;;;;;;;2.35;2.15;;;25.60;99.90;;;;;;5062548;28;20205;-50
2022/08/23 11:27:35;;;;;;;5.07;2.40;;;25.60;99.90;;;;;;5064779;28;20197;-52
2022/08/23 11:30:40;;;;;;;4.28;2.22;;;25.60;99.90;;;;;;5065827;28;20651;-49
2022/08/23 11:33:20;;;;;;;2.33;2.13;;;25.60;99.90;;;;;;5064019;28;20229;-45
2022/08/23 11:35:50;;;;;;;3.70;1.85;;;25.60;99.90;;;;;;5063720;28;20684;-47
2022/08/23 11:38:58;;;;;;;6.25;3.13;;;25.60;99.90;;;;;;5063130;28;20247;-51
2022/08/23 11:41:27;;;;;;;3.47;2.40;;;25.60;99.90;;;;;;5062913;28;20197;-55
2022/08/23 11:44:18;;;;;;;4.00;2.42;;;25.60;99.90;;;;;;5065725;28;20189;-48
2022/08/23 11:46:59;;;;;;;2.38;2.17;;;25.60;99.90;;;;;;5066135;28;20250;-51
2022/08/23 11:50:11;;;;;;;3.00;1.95;;;25.60;99.90;;;;;;5058969;28;20210;-50
2022/08/23 11:52:57;;;;;;;5.43;2.20;;;25.60;99.90;;;;;;5060637;28;20574;-49
2022/08/23 11:55:41;;;;;;;2.92;2.00;;;25.60;99.90;;;;;;5064545;28;20599;-52
2022/08/23 11:58:22;;;;;;;2.47;2.22;;;25.60;99.90;;;;;;5064792;28;20200;-52
2022/08/23 12:01:05;;;;;;;4.80;2.35;;;25.60;99.90;;;;;;5062258;28;20684;-48
2022/08/23 12:03:35;;;;;;;4.28;2.70;;;25.60;99.90;;;;;;5065013;28;20637;-46
2022/08/23 12:06:45;;;;;;;4.15;2.60;;;25.60;99.90;;;;;;5063739;28;20725;-52
2022/08/23 12:09:29;;;;;;;2.55;2.33;;;25.60;99.90;;;;;;5027823;28;20302;-52
2022/08/23 12:12:27;;;;;;;3.30;2.38;;;25.60;99.90;;;;;;5065054;28;20645;-49
2022/08/23 12:14:56;;;;;;;2.63;2.40;;;25.60;99.90;;;;;;5061305;28;20522;-52
2022/08/23 12:17:54;;;;;;;5.93;2.80;;;25.60;99.90;;;;;;5062955;28;20209;-51
2022/08/23 12:20:30;;;;;;;5.80;2.60;;;25.70;99.90;;;;;;5066931;28;20209;-52
2022/08/23 12:23:04;;;;;;;5.90;2.60;;;25.80;99.90;;;;;;5063091;28;20701;-51
2022/08/23 12:25:31;;;;;;;6.85;3.45;;;25.90;99.90;;;;;;5065116;28;20213;-52
2022/08/23 12:28:10;;;;;;;7.45;2.80;;;26.00;99.90;;;;;;5063695;28;20216;-53
2022/08/23 12:30:47;;;;;;;6.88;3.00;;;26.20;99.90;;;;;;5063098;28;20216;-51
2022/08/23 12:33:25;;;;;;;3.10;2.80;;;26.20;99.90;;;;;;5064803;28;20242;-50
2022/08/23 12:36:07;;;;;;;3.08;2.80;;;26.30;99.90;;;;;;5064588;28;20296;-54
2022/08/23 12:38:43;;;;;;;3.72;2.30;;;26.30;99.90;;;;;;5061072;28;20221;-49
2022/08/23 12:41:21;;;;;;;5.50;2.90;;;26.40;99.90;;;;;;5066538;28;20197;-53
2022/08/23 12:44:03;;;;;;;5.00;3.00;;;26.40;99.90;;;;;;5064524;28;20534;-50
2022/08/23 12:46:34;;;;;;;5.35;2.60;;;26.40;99.90;;;;;;5063532;28;20238;-47
2022/08/23 12:49:01;;;;;;;4.55;2.60;;;26.40;99.90;;;;;;5062372;28;20587;-51
2022/08/23 12:51:28;;;;;;;10.63;3.42;;;26.40;99.90;;;;;;5064693;28;20224;-53
2022/08/23 12:53:55;;;;;;;5.95;3.20;;;26.40;99.90;;;;;;5063708;28;20189;-55
2022/08/23 12:56:27;;;;;;;4.93;3.03;;;26.30;99.90;;;;;;5066424;28;20708;-52
2022/08/23 12:58:56;;;;;;;3.25;2.92;;;26.30;99.90;;;;;;5065485;28;20561;-52
2022/08/23 13:01:28;;;;;;;2.90;2.60;;;26.20;99.90;;;;;;5064932;28;20193;-50
2022/08/23 13:03:59;;;;;;;3.17;2.83;;;26.20;99.90;;;;;;5066343;28;20294;-49
2022/08/23 13:06:30;;;;;;;8.05;3.55;;;26.30;99.90;;;;;;5066396;28;20258;-53
2022/08/23 13:09:01;;;;;;;7.25;3.05;;;26.30;99.90;;;;;;5064694;28;20193;-54
2022/08/23 13:11:32;;;;;;;8.73;3.45;;;26.30;99.90;;;;;;5065117;28;20235;-51
2022/08/23 13:14:00;;;;;;;4.82;3.25;;;26.30;99.90;;;;;;5062220;28;20225;-55
2022/08/23 13:16:32;;;;;;;4.45;2.70;;;26.30;99.90;;;;;;5064411;28;20541;-54
2022/08/23 13:19:16;;;;;;;5.15;2.97;;;26.30;99.90;;;;;;5062000;28;20186;-54
2022/08/23 13:21:44;;;;;;;4.10;2.75;;;26.40;99.90;;;;;;5064925;28;20197;-55
2022/08/23 13:24:33;;;;;;;4.00;2.70;;;26.30;99.90;;;;;;5063783;28;20197;-52
2022/08/23 13:27:13;;;;;;;5.35;2.50;;;26.30;99.90;;;;;;5061271;28;20190;-55